• Join FlightAware (Why Join?)
  • Login
  • US Flag 
 
01:21AM EST


 

Airport Tracker/Info


-or-


 

Live Flight TrackerFlight Track Log ✈ ASH2710 ✈ 09-May-2013 ✈ KSTL - KCLT

Flight Track Log - Related Links

Times and Time Zones

All times are in EDT time to prevent confusion due to time zone crossing. See the ASH2710 flight status page for this flight to view local times or setup timezone preferences in your user account.

Time Position Orientation Groundspeed Altitude Reporting Facility
EDT Latitude Longitude Course Direction KTS MPH feet Rate Location/Type
10:24AM 38.7667 -90.4167 130° Southeast 164 189 1,300  Level Gateway (St. Louis) TRACON
10:25AM 38.7833 -90.4833 288° West 213 245 3,500 2,040 Climbing Gateway (St. Louis) TRACON
10:25AM 38.7800 -90.5003 256° West 211 243 4,200 2,820 Climbing Kansas City Center
10:26AM 38.7203 -90.4936 175° South 221 254 7,200 2,460 Climbing Kansas City Center
10:27AM 38.5469 -90.0589 127° Southeast  Level FlightAware Approximate
10:27AM 38.6567 -90.4922 179° South 233 268 9,300  Level Kansas City Center
10:28AM 38.4847 -89.9523 127° Southeast  Level FlightAware Approximate
10:28AM 38.5831 -90.4933 181° South 263 303 12,100  Level Kansas City Center
10:29AM 38.4174 -89.8510 130° Southeast  Level FlightAware Approximate
10:29AM 38.5275 -90.4244 136° Southeast 290 334 14,500  Level Kansas City Center
10:30AM 38.4900 -90.2931 110° East 330 380 16,100 1,680 Climbing Kansas City Center
10:31AM 38.4558 -90.1678 109° East 368 423 18,000 1,740 Climbing Kansas City Center
10:32AM 38.4197 -90.0364 109° East 388 447 19,700 1,740 Climbing Kansas City Center
10:33AM 38.3811 -89.9000 110° East 405 466 21,700 1,800 Climbing Kansas City Center
10:35AM 38.3425 -89.7575 109° East 416 479 23,400 1,740 Climbing Kansas City Center
10:36AM 38.2611 -89.6086 125° Southeast 428 493 25,300 1,620 Climbing Kansas City Center
10:37AM 38.1811 -89.4936 131° Southeast 435 501 26,800 1,260 Climbing Kansas City Center
10:38AM 38.0992 -89.3761 132° Southeast 445 512 27,900 1,140 Climbing Kansas City Center
10:39AM 38.0075 -89.2458 132° Southeast 458 527 29,200 1,080 Climbing Kansas City Center
10:40AM 37.9208 -89.1233 132° Southeast 466 536 30,200 900 Climbing Kansas City Center
10:41AM 37.8400 -89.0083 132° Southeast 476 548 31,100 960 Climbing Kansas City Center
10:42AM 37.7500 -88.8731 130° Southeast 482 555 32,200 1,080 Climbing Kansas City Center
10:43AM 37.6589 -88.7483 133° Southeast 483 556 33,400 1,260 Climbing Kansas City Center
10:43AM 37.5889 -88.6558 134° Southeast 481 554 34,400 900 Climbing Memphis Center
10:44AM 37.5017 -88.5297 131° Southeast 476 548 35,000 300 Climbing Memphis Center
10:45AM 37.4081 -88.4014 133° Southeast 481 554 35,000  Level Memphis Center
10:46AM 37.3164 -88.2733 132° Southeast 481 554 35,000  Level Memphis Center
10:47AM 37.2225 -88.1453 133° Southeast 487 560 35,000  Level Memphis Center
10:48AM 37.1369 -88.0281 132° Southeast 493 567 35,000  Level Memphis Center
10:49AM 37.0364 -87.8881 132° Southeast 493 567 35,000  Level Memphis Center
10:50AM 36.9422 -87.7611 133° Southeast 487 560 35,000  Level Memphis Center
10:51AM 36.8500 -87.6372 133° Southeast 487 560 35,000  Level Memphis Center
10:52AM 36.7553 -87.5108 133° Southeast 495 570 35,000  Level Memphis Center
10:53AM 36.6628 -87.3847 132° Southeast 495 570 35,000  Level Memphis Center
10:54AM 36.5700 -87.2592 133° Southeast 495 570 35,000  Level Memphis Center
10:55AM 36.4731 -87.1311 133° Southeast 495 570 35,000  Level Memphis Center
10:56AM 36.3781 -87.0036 133° Southeast 495 570 35,000  Level Memphis Center
10:57AM 36.2872 -86.8914 135° Southeast 502 578 35,000  Level Memphis Center
10:58AM 36.1853 -86.7517 132° Southeast 499 574 35,000  Level Memphis Center
10:59AM 36.1308 -86.6025 114° Southeast 476 548 35,000  Level Memphis Center
11:00AM 36.1153 -86.4389 97° East 468 539 35,000  Level Memphis Center
11:01AM 36.1039 -86.2800 95° East 467 537 35,000  Level Memphis Center
11:02AM 36.0942 -86.1136 94° East 475 547 35,000  Level Memphis Center
11:03AM 36.0822 -85.9500 95° East 480 552 35,000  Level Memphis Center
11:06AM 36.0508 -85.5719 96° East 468 539 35,000  Level Atlanta Center
11:07AM 36.0403 -85.4100 95° East 473 544 35,000  Level Atlanta Center
11:08AM 36.0272 -85.2531 96° East 468 539 35,000  Level Atlanta Center
11:09AM 36.0142 -85.0939 96° East 463 533 35,000  Level Atlanta Center
11:10AM 36.0008 -84.9192 95° East 463 533 35,000  Level Atlanta Center
11:11AM 35.9853 -84.7522 97° East 474 545 35,000  Level Atlanta Center
11:12AM 35.9694 -84.5931 97° East 474 545 35,000 -360 Level Atlanta Center
11:13AM 35.9556 -84.4311 96° East 474 545 34,300 -1,080 Descending Atlanta Center
11:14AM 35.9392 -84.2747 97° East 474 545 32,900 -1,200 Descending Atlanta Center
11:15AM 35.9247 -84.1183 96° East 463 533 31,900 -1,020 Descending Atlanta Center
11:16AM 35.9122 -83.9619 96° East 463 533 30,900 -1,020 Descending Atlanta Center
11:17AM 35.9036 -83.8081 94° East 463 533 29,900 -960 Descending Atlanta Center
11:18AM 35.9011 -83.6517 91° East 458 527 29,000 -480 Descending Atlanta Center
11:19AM 35.8986 -83.4903 91° East 458 527 29,000  Level Atlanta Center
11:20AM 35.8956 -83.3339 91° East 458 527 29,000  Level Atlanta Center
11:21AM 35.8906 -83.1928 92° East 458 527 29,000 -420 Level Atlanta Center
11:22AM 35.8872 -83.0339 91° East 458 527 28,200 -900 Descending Atlanta Center
11:23AM 35.8817 -82.8753 92° East 458 527 27,200 -1,020 Descending Atlanta Center
11:24AM 35.8781 -82.7164 92° East 458 527 26,200 -1,020 Descending Atlanta Center
11:25AM 35.8764 -82.5625 91° East 452 520 25,200 -1,620 Descending Atlanta Center
11:26AM 35.8494 -82.4197 103° East 445 512 23,000 -2,280 Descending Atlanta Center
11:27AM 35.8100 -82.2847 110° East 422 486 20,700 -2,280 Descending Atlanta Center
11:28AM 35.7769 -82.1600 108° East 398 458 18,500 -2,100 Descending Atlanta Center
11:29AM 35.7394 -82.0331 110° East 392 451 16,500 -2,100 Descending Atlanta Center
11:30AM 35.7039 -81.9136 110° East 380 437 14,400 -2,220 Descending Atlanta Center
11:31AM 35.6708 -81.7994 110° East 356 410 12,400 -1,680 Descending Atlanta Center
11:32AM 35.6372 -81.6828 109° East 340 391 11,100 -660 Descending Atlanta Center
11:33AM 35.6019 -81.5817 113° Southeast 346 398 11,000 -240 Descending Atlanta Center
11:34AM 35.5542 -81.4911 123° Southeast 326 375 10,700 -960 Descending Atlanta Center
11:35AM 35.5333 -81.3922 104° East 306 352 9,100 -1,560 Descending Atlanta Center
11:36AM 35.5125 -81.2961 105° East 300 345 7,600 -1,260 Descending Atlanta Center
11:37AM 35.4933 -81.1972 103° East 300 345 6,600 -1,260 Descending Atlanta Center
11:38AM 35.4747 -81.1086 104° East 284 327 5,100 -1,260 Descending Atlanta Center
11:39AM 35.4331 -81.0286 123° Southeast 268 308 4,100 -660 Descending Atlanta Center
11:40AM 35.3692 -80.9772 147° Southeast 256 295 3,800 -840 Descending Atlanta Center
11:41AM 35.3003 -80.9772 180° South 168 193 2,300 -1,200 Descending Atlanta Center